createdAt,value
2022-08-18T00:02:07.259Z,16.33
2022-08-18T00:04:48.663Z,18.17
2022-08-18T00:07:22.648Z,19.63
2022-08-18T00:09:49.842Z,18.98
2022-08-18T00:12:18.620Z,19.05
2022-08-18T00:14:46.396Z,17.17
2022-08-18T00:17:13.950Z,17.33
2022-08-18T00:19:47.066Z,17.15
2022-08-18T00:22:20.837Z,17.77
2022-08-18T00:24:51.988Z,18.15
2022-08-18T00:27:23.712Z,18.60
2022-08-18T00:29:57.449Z,17.13
2022-08-18T00:32:30.231Z,16.08
2022-08-18T00:34:56.882Z,16.17
2022-08-18T00:37:24.339Z,15.50
2022-08-18T00:39:53.502Z,16.85
2022-08-18T00:42:30.636Z,16.98
2022-08-18T00:45:01.596Z,17.20
2022-08-18T00:47:41.913Z,17.75
2022-08-18T00:50:22.798Z,17.30
2022-08-18T00:52:57.418Z,19.27
2022-08-18T00:55:25.278Z,19.60
2022-08-18T00:57:55.887Z,19.48
2022-08-18T01:00:22.900Z,20.08
2022-08-18T01:02:59.031Z,19.75
2022-08-18T01:05:43.333Z,19.27
2022-08-18T01:08:17.184Z,20.83
2022-08-18T01:10:55.614Z,22.15
2022-08-18T01:13:27.719Z,20.92
2022-08-18T01:15:54.378Z,19.83
2022-08-18T01:18:39.917Z,20.35
2022-08-18T01:21:34.647Z,20.13
2022-08-18T01:24:05.578Z,19.17
2022-08-18T01:26:45.601Z,18.70
2022-08-18T01:29:18.655Z,17.40
2022-08-18T01:31:55.709Z,18.08
2022-08-18T01:34:25.907Z,16.98
2022-08-18T01:36:54.238Z,18.17
2022-08-18T01:41:25.812Z,17.80
2022-08-18T01:42:09.747Z,18.38
2022-08-18T01:44:36.765Z,18.75
2022-08-18T01:47:03.599Z,17.48
2022-08-18T01:49:30.295Z,17.67
2022-08-18T01:51:56.919Z,17.42
2022-08-18T01:54:23.543Z,17.58
2022-08-18T01:56:50.245Z,18.60
2022-08-18T01:59:17.292Z,18.83
2022-08-18T02:01:50.349Z,17.70
2022-08-18T02:04:36.129Z,18.05
2022-08-18T02:07:09.233Z,17.75
2022-08-18T02:09:38.523Z,18.23
2022-08-18T02:12:07.621Z,17.67
2022-08-18T02:14:35.754Z,16.42
2022-08-18T02:17:04.942Z,16.88
2022-08-18T02:19:43.991Z,16.70
2022-08-18T02:22:13.975Z,17.15
2022-08-18T02:24:40.939Z,17.50
2022-08-18T02:27:09.044Z,19.00
2022-08-18T02:29:36.892Z,18.33
2022-08-18T02:32:04.526Z,18.70
2022-08-18T02:34:31.195Z,19.58
2022-08-18T02:37:00.117Z,20.33
2022-08-18T02:39:27.656Z,20.60
2022-08-18T02:41:54.339Z,21.30
2022-08-18T02:44:21.069Z,22.42
2022-08-18T02:46:52.680Z,23.33
2022-08-18T02:49:19.445Z,21.45
2022-08-18T02:51:46.400Z,19.33
2022-08-18T02:54:13.055Z,18.23
2022-08-18T02:56:42.097Z,18.00
2022-08-18T02:59:27.651Z,17.67
2022-08-18T03:01:56.220Z,18.45
2022-08-18T03:04:29.630Z,18.65
2022-08-18T03:06:59.791Z,17.25
2022-08-18T03:09:27.114Z,17.38
2022-08-18T03:11:54.600Z,16.92
2022-08-18T03:14:22.062Z,17.00
2022-08-18T03:16:54.119Z,18.80
2022-08-18T03:19:25.706Z,19.77
2022-08-18T03:21:52.932Z,21.45
2022-08-18T03:24:22.910Z,21.08
2022-08-18T03:26:51.691Z,21.40
2022-08-18T03:29:18.746Z,19.77
2022-08-18T03:31:45.672Z,18.80
2022-08-18T03:34:12.809Z,19.10
2022-08-18T03:36:39.886Z,19.23
2022-08-18T03:39:10.149Z,17.70
2022-08-18T03:41:43.878Z,18.20
2022-08-18T03:44:27.870Z,17.95
2022-08-18T03:46:54.468Z,18.17
2022-08-18T03:49:21.086Z,17.45
2022-08-18T03:51:48.707Z,18.20
2022-08-18T03:54:18.360Z,19.35
2022-08-18T03:56:46.715Z,20.73
2022-08-18T03:59:19.748Z,21.13
2022-08-18T04:01:48.259Z,19.40
2022-08-18T04:04:19.097Z,17.25
2022-08-18T04:06:55.703Z,18.02
2022-08-18T04:09:24.629Z,17.67
2022-08-18T04:11:52.047Z,18.85
2022-08-18T04:14:24.079Z,18.50
2022-08-18T04:16:51.050Z,19.20
2022-08-18T04:19:26.536Z,19.10
2022-08-18T04:21:58.185Z,19.88
2022-08-18T04:24:28.221Z,19.88
2022-08-18T04:26:59.735Z,18.45
2022-08-18T04:29:26.769Z,18.90
2022-08-18T04:31:53.405Z,17.95
2022-08-18T04:34:21.287Z,17.80
2022-08-18T04:36:48.236Z,19.67
2022-08-18T04:39:15.745Z,20.17
2022-08-18T04:41:44.044Z,19.52
2022-08-18T04:44:12.642Z,19.15
2022-08-18T04:46:47.593Z,19.38
2022-08-18T04:49:16.119Z,17.95
2022-08-18T04:52:34.312Z,19.65
2022-08-18T04:54:54.854Z,18.25
2022-08-18T04:57:22.911Z,20.33
2022-08-18T04:59:52.202Z,19.70
2022-08-18T05:02:21.431Z,20.25
2022-08-18T05:04:48.779Z,20.30
2022-08-18T05:07:18.929Z,19.50
2022-08-18T05:09:46.450Z,20.27
2022-08-18T05:12:15.021Z,19.73
2022-08-18T05:14:44.668Z,20.42
2022-08-18T05:17:12.755Z,22.85
2022-08-18T05:19:42.373Z,22.75
2022-08-18T05:22:11.100Z,23.17
2022-08-18T05:24:39.606Z,21.13
2022-08-18T05:27:07.580Z,18.95
2022-08-18T05:29:41.718Z,20.30
2022-08-18T05:32:37.148Z,19.17
2022-08-18T05:35:05.148Z,19.92
2022-08-18T05:37:44.118Z,22.20
2022-08-18T05:40:11.816Z,24.73
2022-08-18T05:42:40.393Z,24.80
2022-08-18T05:45:12.938Z,24.92
2022-08-18T05:47:39.630Z,29.35
2022-08-18T05:50:10.591Z,27.77
2022-08-18T05:52:50.604Z,29.65
2022-08-18T05:55:47.921Z,29.88
2022-08-18T05:58:33.556Z,29.13
2022-08-18T06:01:23.819Z,25.98
2022-08-18T06:03:56.703Z,26.35
2022-08-18T06:06:29.514Z,25.02
2022-08-18T06:09:19.859Z,30.63
2022-08-18T06:11:47.251Z,30.83
2022-08-18T06:14:13.953Z,30.25
2022-08-18T06:16:58.433Z,31.55
2022-08-18T06:19:43.636Z,33.63
2022-08-18T06:22:23.250Z,32.10
2022-08-18T06:25:02.422Z,31.73
2022-08-18T06:27:55.852Z,32.13
2022-08-18T06:30:45.583Z,34.03
2022-08-18T06:33:34.867Z,29.70
2022-08-18T06:36:37.350Z,28.58
2022-08-18T06:39:26.359Z,28.23
2022-08-18T06:41:53.855Z,30.42
2022-08-18T06:44:43.941Z,31.98
2022-08-18T06:47:20.949Z,31.70
2022-08-18T06:50:03.228Z,34.95
2022-08-18T06:52:33.890Z,32.78
2022-08-18T06:55:15.988Z,35.60
2022-08-18T06:57:58.612Z,36.03
2022-08-18T07:00:32.730Z,36.63
2022-08-18T07:03:02.663Z,35.83
2022-08-18T07:05:31.761Z,34.53
2022-08-18T07:08:15.997Z,35.13
2022-08-18T07:10:52.121Z,36.55
2022-08-18T07:13:27.760Z,35.22
2022-08-18T07:16:15.895Z,36.15
2022-08-18T07:18:45.430Z,38.35
2022-08-18T07:21:25.424Z,37.03
2022-08-18T07:24:23.247Z,38.92
2022-08-18T07:27:18.738Z,37.08
2022-08-18T07:30:28.772Z,36.30
2022-08-18T07:33:04.723Z,38.95
2022-08-18T07:35:43.078Z,43.05
2022-08-18T07:38:41.494Z,42.22
2022-08-18T07:41:16.567Z,43.63
2022-08-18T07:43:51.331Z,45.25
2022-08-18T07:46:43.501Z,45.70
2022-08-18T07:49:18.235Z,44.83
2022-08-18T07:51:56.754Z,48.85
2022-08-18T07:54:48.878Z,48.83
2022-08-18T07:57:27.360Z,48.95
2022-08-18T08:00:35.020Z,49.25
2022-08-18T08:03:22.934Z,51.38
2022-08-18T08:07:06.475Z,50.50
2022-08-18T08:09:59.018Z,48.75
2022-08-18T08:13:06.102Z,51.70
2022-08-18T08:15:50.651Z,50.28
2022-08-18T08:18:52.477Z,52.75
2022-08-18T08:21:21.975Z,52.20
2022-08-18T08:24:09.471Z,51.80
2022-08-18T08:27:07.271Z,51.55
2022-08-18T08:29:46.156Z,50.00
2022-08-18T08:32:19.437Z,49.80
2022-08-18T08:35:47.146Z,48.50
2022-08-18T08:38:23.230Z,47.58
2022-08-18T08:41:03.482Z,47.20
2022-08-18T08:43:34.548Z,43.65
2022-08-18T08:46:15.769Z,44.75
2022-08-18T08:49:03.224Z,43.15
2022-08-18T08:51:32.719Z,42.53
2022-08-18T08:54:08.183Z,39.40
2022-08-18T08:56:40.712Z,40.63
2022-08-18T08:59:11.015Z,40.38
2022-08-18T09:01:40.676Z,40.33
2022-08-18T09:04:34.576Z,38.05
2022-08-18T09:07:25.763Z,39.40
2022-08-18T09:10:21.037Z,38.70
2022-08-18T09:13:06.459Z,37.63
2022-08-18T09:16:12.355Z,36.25
2022-08-18T09:19:01.766Z,33.92
2022-08-18T09:21:46.782Z,34.30
2022-08-18T09:24:27.319Z,34.28
2022-08-18T09:27:18.984Z,34.90
2022-08-18T09:29:58.443Z,34.15
2022-08-18T09:32:26.045Z,36.30
2022-08-18T09:35:11.447Z,31.50
2022-08-18T09:38:28.545Z,34.92
2022-08-18T09:41:18.803Z,34.22
2022-08-18T09:44:12.051Z,31.33
2022-08-18T09:46:48.361Z,32.60
2022-08-18T09:49:26.527Z,30.52
2022-08-18T09:55:30.743Z,28.77
2022-08-18T09:58:26.167Z,28.25
2022-08-18T10:01:37.219Z,30.52
2022-08-18T10:07:38.880Z,28.02
2022-08-18T10:10:59.934Z,27.30
2022-08-18T10:13:48.872Z,29.77
2022-08-18T10:17:13.141Z,27.77
2022-08-18T10:19:52.993Z,24.67
2022-08-18T10:22:43.202Z,24.00
2022-08-18T10:25:23.114Z,24.73
2022-08-18T10:27:54.882Z,23.85
2022-08-18T10:30:34.593Z,22.95
2022-08-18T10:33:17.702Z,24.42
2022-08-18T10:36:02.281Z,24.60
2022-08-18T10:38:47.844Z,24.75
2022-08-18T10:41:23.153Z,27.83
2022-08-18T10:43:55.838Z,24.20
2022-08-18T10:46:31.943Z,24.83
2022-08-18T10:49:17.488Z,23.20
2022-08-18T10:51:59.300Z,26.30
2022-08-18T10:54:56.151Z,24.30
2022-08-18T10:57:25.804Z,25.88
2022-08-18T11:00:02.717Z,23.75
2022-08-18T11:03:50.504Z,24.83
2022-08-18T11:09:00.292Z,23.63
2022-08-18T11:11:52.849Z,26.65
2022-08-18T11:14:41.902Z,25.42
2022-08-18T11:17:54.646Z,29.20
2022-08-18T11:20:27.171Z,26.67
2022-08-18T11:23:00.125Z,27.40
2022-08-18T11:25:36.511Z,30.88
2022-08-18T11:28:14.257Z,26.85
2022-08-18T11:30:49.041Z,29.30
2022-08-18T11:33:23.186Z,29.63
2022-08-18T11:36:01.480Z,28.27
2022-08-18T11:38:31.248Z,27.20
2022-08-18T11:41:18.978Z,28.38
2022-08-18T11:43:48.361Z,27.80
2022-08-18T11:46:27.664Z,26.05
2022-08-18T11:48:55.064Z,26.40
2022-08-18T11:51:27.012Z,26.35
2022-08-18T11:54:19.193Z,26.08
2022-08-18T11:56:45.894Z,24.88
2022-08-18T11:59:53.195Z,26.85
2022-08-18T12:02:21.795Z,25.58
2022-08-18T12:04:55.071Z,25.95
2022-08-18T12:07:37.141Z,26.95
2022-08-18T12:10:19.993Z,25.40
2022-08-18T12:12:54.056Z,26.35
2022-08-18T12:15:44.131Z,22.92
2022-08-18T12:21:05.419Z,23.85
2022-08-18T12:23:44.403Z,27.42
2022-08-18T12:26:26.895Z,26.70
2022-08-18T12:29:02.093Z,27.15
2022-08-18T12:31:42.596Z,28.23
2022-08-18T12:34:14.951Z,27.33
2022-08-18T12:36:42.432Z,27.42
2022-08-18T12:39:10.359Z,27.42
2022-08-18T12:41:37.654Z,28.30
2022-08-18T12:44:04.608Z,26.15
2022-08-18T12:46:42.880Z,28.80
2022-08-18T12:49:35.957Z,25.42
2022-08-18T12:52:04.699Z,24.30
2022-08-18T12:54:32.804Z,25.95
2022-08-18T12:57:01.176Z,30.45
2022-08-18T12:59:33.101Z,29.77
2022-08-18T13:02:04.621Z,27.27
2022-08-18T13:04:31.190Z,26.73
2022-08-18T13:07:01.868Z,26.83
2022-08-18T13:09:35.252Z,27.05
2022-08-18T13:12:16.597Z,23.83
2022-08-18T13:14:44.127Z,23.38
2022-08-18T13:17:30.158Z,25.80
2022-08-18T13:19:59.583Z,26.17
2022-08-18T13:22:32.734Z,24.17
2022-08-18T13:25:05.353Z,25.95
2022-08-18T13:27:35.546Z,27.65
2022-08-18T13:30:16.714Z,26.30
2022-08-18T13:33:00.315Z,25.73
2022-08-18T13:35:38.141Z,26.50
2022-08-18T13:38:21.974Z,21.73
2022-08-18T13:40:54.922Z,23.52
2022-08-18T13:43:32.190Z,26.52
2022-08-18T13:45:59.857Z,25.95
2022-08-18T13:48:28.390Z,26.27
2022-08-18T13:50:59.953Z,25.30
2022-08-18T13:53:29.577Z,26.35
2022-08-18T13:55:59.054Z,26.35
2022-08-18T13:58:27.173Z,26.00
2022-08-18T14:01:22.664Z,26.17
2022-08-18T14:03:47.476Z,25.00
2022-08-18T14:06:15.808Z,25.60
2022-08-18T14:08:49.636Z,27.25
2022-08-18T14:11:17.267Z,24.67
2022-08-18T14:13:44.473Z,23.90
2022-08-18T14:16:18.438Z,24.25
2022-08-18T14:19:09.683Z,23.92
2022-08-18T14:22:00.952Z,24.52
2022-08-18T14:24:48.876Z,22.70
2022-08-18T14:27:35.851Z,23.20
2022-08-18T14:30:13.889Z,22.20
2022-08-18T14:32:48.897Z,22.23
2022-08-18T14:36:04.431Z,23.20
2022-08-18T14:38:04.032Z,24.13
2022-08-18T14:40:33.347Z,25.23
2022-08-18T14:43:01.971Z,23.48
2022-08-18T14:45:35.196Z,23.35
2022-08-18T14:48:07.367Z,22.73
2022-08-18T14:50:39.163Z,22.15
2022-08-18T14:53:06.665Z,22.55
2022-08-18T14:55:34.253Z,22.85
2022-08-18T14:58:01.226Z,22.75
2022-08-18T15:00:28.601Z,23.27
2022-08-18T15:02:57.443Z,24.38
2022-08-18T15:05:31.757Z,23.83
2022-08-18T15:08:03.687Z,23.35
2022-08-18T15:10:31.563Z,23.00
2022-08-18T15:13:00.576Z,24.23
2022-08-18T15:15:28.560Z,22.20
2022-08-18T15:18:15.515Z,22.35
2022-08-18T15:21:10.297Z,20.98
2022-08-18T15:24:04.969Z,22.85
2022-08-18T15:26:42.499Z,21.92
2022-08-18T15:29:10.927Z,22.27
2022-08-18T15:32:02.375Z,23.15
2022-08-18T15:34:28.722Z,23.63
2022-08-18T15:36:57.042Z,24.52
2022-08-18T15:39:25.356Z,23.52
2022-08-18T15:41:56.259Z,22.98
2022-08-18T15:44:23.023Z,24.67
2022-08-18T15:46:53.106Z,23.58
2022-08-18T15:49:21.823Z,22.92
2022-08-18T15:51:50.030Z,21.63
2022-08-18T15:54:19.531Z,23.45
2022-08-18T15:56:57.641Z,21.65
2022-08-18T15:59:41.253Z,21.52
2022-08-18T16:02:11.467Z,21.00
2022-08-18T16:04:41.225Z,23.88
2022-08-18T16:07:09.986Z,22.45
2022-08-18T16:09:36.883Z,22.58
2022-08-18T16:12:03.839Z,21.92
2022-08-18T16:14:31.557Z,22.67
2022-08-18T16:16:58.152Z,21.83
2022-08-18T16:19:25.695Z,21.55
2022-08-18T16:21:55.096Z,21.63
2022-08-18T16:24:21.874Z,21.42
2022-08-18T16:26:48.440Z,20.23
2022-08-18T16:29:15.144Z,20.35
2022-08-18T16:31:41.775Z,20.70
2022-08-18T16:34:09.463Z,19.88
2022-08-18T16:36:36.323Z,20.73
2022-08-18T16:39:03.277Z,17.83
2022-08-18T16:41:31.867Z,18.67
2022-08-18T16:43:58.489Z,19.30
2022-08-18T16:46:27.614Z,19.17
2022-08-18T16:48:55.810Z,20.55
2022-08-18T16:51:25.307Z,20.05
2022-08-18T16:53:53.449Z,19.17
2022-08-18T16:56:23.363Z,20.17
2022-08-18T16:59:18.051Z,20.33
2022-08-18T17:02:03.056Z,21.23
2022-08-18T17:04:34.626Z,21.70
2022-08-18T17:07:05.784Z,22.80
2022-08-18T17:09:33.466Z,23.15
2022-08-18T17:12:01.307Z,22.23
2022-08-18T17:14:30.075Z,21.30
2022-08-18T17:16:58.434Z,21.88
2022-08-18T17:19:29.977Z,23.52
2022-08-18T17:21:56.932Z,22.83
2022-08-18T17:24:31.150Z,21.05
2022-08-18T17:27:26.676Z,21.80
2022-08-18T17:30:18.015Z,21.73
2022-08-18T17:32:54.361Z,21.83
2022-08-18T17:35:29.414Z,20.42
2022-08-18T17:38:19.559Z,21.48
2022-08-18T17:40:52.983Z,20.60
2022-08-18T17:43:22.967Z,19.85
2022-08-18T17:45:57.174Z,20.13
2022-08-18T17:48:37.723Z,20.30
2022-08-18T17:51:30.609Z,20.05
2022-08-18T17:54:09.714Z,19.23
2022-08-18T17:56:42.614Z,20.50
2022-08-18T17:59:45.959Z,20.35
2022-08-18T18:02:19.009Z,19.88
2022-08-18T18:04:55.779Z,20.85
2022-08-18T18:07:33.832Z,20.95
2022-08-18T18:10:10.912Z,20.35
2022-08-18T18:12:38.694Z,22.15
2022-08-18T18:15:10.089Z,21.02
2022-08-18T18:17:39.599Z,21.45
2022-08-18T18:20:24.861Z,20.58
2022-08-18T18:22:52.171Z,21.92
2022-08-18T18:25:34.589Z,21.70
2022-08-18T18:28:02.122Z,22.23
2022-08-18T18:30:32.852Z,22.38
2022-08-18T18:33:02.601Z,22.13
2022-08-18T18:35:53.319Z,21.13
2022-08-18T18:38:35.280Z,21.10
2022-08-18T18:41:06.821Z,22.55
2022-08-18T18:43:47.387Z,22.33
2022-08-18T18:46:18.365Z,20.92
2022-08-18T18:49:15.803Z,21.83
2022-08-18T18:52:13.219Z,21.05
2022-08-18T18:54:54.642Z,20.58
2022-08-18T18:57:40.344Z,19.98
2022-08-18T19:00:21.064Z,22.17
2022-08-18T19:02:47.705Z,21.88
2022-08-18T19:05:20.667Z,21.63
2022-08-18T19:07:59.310Z,21.73
2022-08-18T19:10:37.478Z,21.80
2022-08-18T19:13:08.418Z,20.85
2022-08-18T19:15:38.375Z,21.42
2022-08-18T19:18:21.741Z,20.63
2022-08-18T19:22:02.297Z,21.00
2022-08-18T19:23:46.310Z,22.17
2022-08-18T19:26:22.713Z,21.13
2022-08-18T19:29:12.452Z,20.92
2022-08-18T19:31:47.182Z,20.88
2022-08-18T19:34:31.493Z,21.38
2022-08-18T19:37:01.580Z,21.77
2022-08-18T19:39:45.971Z,20.65
2022-08-18T19:42:51.811Z,20.65
2022-08-18T19:45:32.771Z,22.00
2022-08-18T19:48:11.603Z,21.17
2022-08-18T19:50:43.213Z,20.77
2022-08-18T19:53:14.492Z,23.25
2022-08-18T19:56:02.314Z,21.05
2022-08-18T19:59:17.076Z,21.98
2022-08-18T20:02:35.078Z,21.48
2022-08-18T20:05:32.753Z,21.38
2022-08-18T20:08:32.167Z,21.85
2022-08-18T20:11:41.916Z,21.00
2022-08-18T20:14:17.113Z,21.02
2022-08-18T20:17:12.804Z,21.52
2022-08-18T20:19:46.912Z,21.52
2022-08-18T20:22:21.914Z,22.17
2022-08-18T20:25:13.823Z,22.00
2022-08-18T20:27:49.393Z,21.10
2022-08-18T20:30:29.714Z,20.67
2022-08-18T20:33:29.160Z,22.63
2022-08-18T20:36:07.991Z,21.90
2022-08-18T20:38:45.638Z,20.58
2022-08-18T20:41:34.029Z,22.33
2022-08-18T20:44:29.344Z,22.33
2022-08-18T20:47:11.220Z,22.23
2022-08-18T20:49:59.967Z,22.27
2022-08-18T20:52:56.219Z,21.20
2022-08-18T20:55:41.085Z,21.98
2022-08-18T20:58:15.662Z,20.70
2022-08-18T21:00:47.788Z,21.27
2022-08-18T21:03:16.754Z,22.23
2022-08-18T21:05:45.298Z,22.00
2022-08-18T21:08:16.422Z,22.60
2022-08-18T21:10:59.787Z,22.13
2022-08-18T21:13:51.400Z,22.48
2022-08-18T21:16:38.698Z,21.65
2022-08-18T21:19:08.721Z,22.48
2022-08-18T21:21:39.584Z,21.55
2022-08-18T21:24:18.176Z,23.00
2022-08-18T21:26:48.109Z,21.95
2022-08-18T21:29:16.387Z,21.65
2022-08-18T21:31:45.469Z,22.73
2022-08-18T21:34:14.184Z,23.02
2022-08-18T21:36:53.536Z,23.40
2022-08-18T21:39:21.453Z,23.15
2022-08-18T21:41:52.605Z,23.35
2022-08-18T21:44:27.308Z,22.20
2022-08-18T21:47:14.404Z,21.88
2022-08-18T21:50:17.214Z,23.30
2022-08-18T21:52:56.083Z,23.00
2022-08-18T21:55:36.892Z,21.60
2022-08-18T21:58:18.435Z,22.10
2022-08-18T22:01:06.067Z,22.42
2022-08-18T22:03:34.379Z,22.33
2022-08-18T22:06:16.243Z,22.00
2022-08-18T22:09:21.902Z,22.05
2022-08-18T22:12:07.370Z,21.55
2022-08-18T22:14:54.636Z,22.15
2022-08-18T22:17:35.053Z,20.98
2022-08-18T22:20:50.067Z,21.08
2022-08-18T22:23:35.427Z,22.25
2022-08-18T22:26:12.345Z,20.95
2022-08-18T22:29:20.267Z,21.00
2022-08-18T22:31:49.880Z,21.20
2022-08-18T22:34:28.395Z,21.02
2022-08-18T22:37:04.040Z,20.95
2022-08-18T22:39:53.903Z,20.38
2022-08-18T22:42:24.390Z,21.40
2022-08-18T22:44:51.272Z,20.95
2022-08-18T22:47:18.353Z,21.33
2022-08-18T22:49:45.972Z,20.92
2022-08-18T22:52:15.551Z,20.92
2022-08-18T22:54:42.131Z,21.20
2022-08-18T22:57:10.428Z,20.55
2022-08-18T22:59:37.563Z,21.52
2022-08-18T23:02:10.532Z,21.33
2022-08-18T23:04:37.262Z,21.35
2022-08-18T23:07:03.937Z,20.90
2022-08-18T23:09:33.345Z,21.38
2022-08-18T23:12:06.986Z,20.50
2022-08-18T23:14:34.723Z,21.25
2022-08-18T23:17:02.271Z,20.65
2022-08-18T23:19:31.466Z,20.98
2022-08-18T23:22:02.772Z,21.08
2022-08-18T23:24:29.711Z,21.58
2022-08-18T23:26:57.365Z,21.98
2022-08-18T23:29:23.994Z,20.17
2022-08-18T23:31:51.707Z,20.55
2022-08-18T23:34:22.881Z,20.42
2022-08-18T23:36:56.804Z,21.73
2022-08-18T23:39:25.434Z,20.95
2022-08-18T23:41:53.597Z,20.30
2022-08-18T23:44:22.490Z,20.02
2022-08-18T23:46:54.151Z,19.55
2022-08-18T23:49:20.937Z,20.17
2022-08-18T23:51:50.951Z,20.08
2022-08-18T23:54:25.531Z,19.90
2022-08-18T23:56:52.101Z,20.15
2022-08-18T23:59:20.970Z,19.98
